createdAt,value
2023-05-20T08:24:17.596Z,8.15
2023-05-20T08:29:12.741Z,6.97
2023-05-20T08:31:40.546Z,7.68
2023-05-20T08:34:08.342Z,7.25
2023-05-20T08:36:35.988Z,7.55
2023-05-20T08:39:04.516Z,8.10
2023-05-20T08:41:32.244Z,8.63
2023-05-20T08:44:01.856Z,8.50
2023-05-20T08:46:30.050Z,9.00
2023-05-20T09:13:39.789Z,11.12
2023-05-20T09:16:07.439Z,8.20
2023-05-20T09:18:39.026Z,8.13
2023-05-20T09:21:09.384Z,9.40
2023-05-20T09:23:38.304Z,9.15
2023-05-20T09:26:06.138Z,9.97
2023-05-20T09:28:33.861Z,9.50
2023-05-20T09:31:02.203Z,11.18
2023-05-20T09:33:30.504Z,11.23
2023-05-20T09:36:05.124Z,13.32
2023-05-20T09:38:39.086Z,10.80
2023-05-20T09:41:09.425Z,10.20
2023-05-20T09:43:39.493Z,10.90
2023-05-20T09:46:08.260Z,9.37
2023-05-20T09:48:37.290Z,8.80
2023-05-20T09:51:06.935Z,8.93
2023-05-20T09:53:34.642Z,8.70
2023-05-20T09:56:02.129Z,9.30
2023-05-20T09:58:30.285Z,9.38
2023-05-20T10:00:57.829Z,9.23
2023-05-20T10:03:28.060Z,11.50
2023-05-20T10:06:25.718Z,9.25
2023-05-20T10:09:19.328Z,8.45
2023-05-20T10:12:04.569Z,11.00
2023-05-20T10:14:59.839Z,9.43
2023-05-20T10:17:36.590Z,11.55
2023-05-20T10:20:09.203Z,10.97
2023-05-20T10:22:36.667Z,10.63
2023-05-20T10:25:12.460Z,8.30
2023-05-20T10:27:47.101Z,10.32
2023-05-20T10:30:22.413Z,8.70
2023-05-20T10:32:54.468Z,8.32
2023-05-20T10:35:26.414Z,8.40
2023-05-20T10:37:55.398Z,9.93
2023-05-20T10:40:23.240Z,9.07
2023-05-20T10:42:50.690Z,7.57
2023-05-20T10:45:28.926Z,10.30
2023-05-20T10:47:58.612Z,9.68
2023-05-20T10:50:36.839Z,10.32
2023-05-20T10:53:15.958Z,9.30
2023-05-20T10:55:54.694Z,9.35
2023-05-20T10:58:23.935Z,9.57
2023-05-20T11:00:54.770Z,9.32
2023-05-20T11:03:23.400Z,9.45
2023-05-20T11:05:51.232Z,9.35
2023-05-20T11:08:28.388Z,9.85
2023-05-20T11:10:57.752Z,9.43
2023-05-20T11:13:27.149Z,9.85
2023-05-20T11:15:55.611Z,8.15
2023-05-20T11:18:23.406Z,8.50
2023-05-20T11:20:51.140Z,9.77
2023-05-20T11:23:19.244Z,10.82
2023-05-20T11:25:47.057Z,7.60
2023-05-20T11:28:14.729Z,9.40
2023-05-20T11:30:43.180Z,8.38
2023-05-20T11:33:17.466Z,8.45
2023-05-20T11:35:52.867Z,8.82
2023-05-20T11:38:21.874Z,9.80
2023-05-20T11:40:54.810Z,8.77
2023-05-20T11:43:23.780Z,8.70
2023-05-20T11:45:56.197Z,8.75
2023-05-20T11:48:24.532Z,8.80
2023-05-20T11:50:55.631Z,8.77
2023-05-20T11:53:24.439Z,8.20
2023-05-20T11:55:56.377Z,10.10
2023-05-20T11:58:25.551Z,9.57
2023-05-20T12:00:59.512Z,9.07
2023-05-20T12:03:37.590Z,11.70
2023-05-20T12:06:05.295Z,10.60
2023-05-20T12:08:32.771Z,9.13
2023-05-20T12:11:00.498Z,8.35
2023-05-20T12:13:27.966Z,8.53
2023-05-20T12:15:55.485Z,9.95
2023-05-20T12:18:23.396Z,9.52
2023-05-20T12:20:51.655Z,8.70
2023-05-20T12:23:19.200Z,8.38
2023-05-20T12:25:49.849Z,8.60
2023-05-20T12:28:17.791Z,9.10
2023-05-20T12:30:45.211Z,10.27
2023-05-20T12:33:12.960Z,10.75
2023-05-20T12:35:42.229Z,9.02
2023-05-20T12:38:10.153Z,9.65
2023-05-20T12:40:38.417Z,8.85
2023-05-20T12:43:06.383Z,9.18
2023-05-20T12:45:33.822Z,8.27
2023-05-20T12:48:01.838Z,11.20
2023-05-20T12:50:29.842Z,8.70
2023-05-20T12:52:57.335Z,10.05
2023-05-20T12:55:30.770Z,7.70
2023-05-20T12:57:58.681Z,8.52
2023-05-20T13:00:26.425Z,8.27
2023-05-20T13:02:54.820Z,9.88
2023-05-20T13:05:22.857Z,7.80
2023-05-20T13:07:50.618Z,10.20
2023-05-20T13:10:18.606Z,9.07
2023-05-20T13:12:46.406Z,8.73
2023-05-20T13:15:14.776Z,9.93
2023-05-20T13:17:45.008Z,9.38
2023-05-20T13:20:13.102Z,11.02
2023-05-20T17:38:55.673Z,12.37
2023-05-20T17:41:23.161Z,7.60
2023-05-20T17:43:50.697Z,13.40
2023-05-20T17:46:18.621Z,12.05
2023-05-20T19:00:15.604Z,8.85
2023-05-20T19:02:43.558Z,10.85
2023-05-20T19:05:12.471Z,10.15
2023-05-20T19:10:08.275Z,12.37
2023-05-20T19:12:35.849Z,10.95
2023-05-20T19:15:05.161Z,12.98
2023-05-20T19:17:33.226Z,10.18
2023-05-20T19:20:00.858Z,12.95
2023-05-20T19:22:28.324Z,12.07
2023-05-20T19:27:23.468Z,15.45
2023-05-20T19:47:02.686Z,15.05
2023-05-20T19:49:30.099Z,17.30
2023-05-20T19:54:27.016Z,18.62
2023-05-20T19:56:54.573Z,18.45
2023-05-20T19:59:22.040Z,19.33
2023-05-20T20:01:49.805Z,23.05
2023-05-20T20:04:18.538Z,19.98
2023-05-20T20:06:47.128Z,21.80
2023-05-20T20:09:14.604Z,20.08
2023-05-20T20:11:43.388Z,20.85
2023-05-20T20:14:11.126Z,19.58
2023-05-20T20:16:38.711Z,19.77
2023-05-20T20:19:06.532Z,21.25
2023-05-20T20:21:36.276Z,19.75
